createdAt,value
2022-11-29T00:01:55.695Z,3.55
2022-11-29T00:04:23.838Z,3.92
2022-11-29T00:06:51.794Z,3.35
2022-11-29T00:09:19.905Z,3.75
2022-11-29T00:12:05.359Z,3.67
2022-11-29T00:14:33.571Z,3.40
2022-11-29T00:17:04.357Z,3.78
2022-11-29T00:19:33.506Z,3.22
2022-11-29T00:22:02.649Z,3.65
2022-11-29T00:24:32.597Z,3.42
2022-11-29T00:27:04.067Z,2.92
2022-11-29T00:29:33.833Z,3.55
2022-11-29T00:32:03.588Z,2.90
2022-11-29T00:34:31.555Z,2.90
2022-11-29T00:36:59.618Z,2.92
2022-11-29T00:39:27.574Z,3.08
2022-11-29T00:41:56.856Z,3.00
2022-11-29T00:44:25.133Z,3.10
2022-11-29T00:46:53.820Z,3.10
2022-11-29T00:49:23.345Z,2.63
2022-11-29T00:51:51.686Z,3.05
2022-11-29T00:54:20.237Z,3.10
2022-11-29T00:56:48.093Z,2.88
2022-11-29T00:59:18.637Z,2.75
2022-11-29T01:01:46.740Z,3.17
2022-11-29T01:04:17.019Z,3.38
2022-11-29T01:06:52.674Z,3.30
2022-11-29T01:09:21.061Z,3.35
2022-11-29T01:11:50.661Z,3.67
2022-11-29T01:14:18.610Z,3.63
2022-11-29T01:16:50.819Z,3.90
2022-11-29T01:19:18.677Z,4.00
2022-11-29T01:21:47.904Z,4.00
2022-11-29T01:24:15.788Z,3.45
2022-11-29T01:26:43.644Z,3.33
2022-11-29T01:29:13.925Z,3.60
2022-11-29T01:31:41.765Z,3.53
2022-11-29T01:34:10.539Z,2.92
2022-11-29T01:36:38.511Z,3.35
2022-11-29T01:39:11.749Z,2.72
2022-11-29T01:41:39.774Z,2.45
2022-11-29T01:44:24.953Z,3.10
2022-11-29T01:46:57.141Z,2.83
2022-11-29T01:49:31.375Z,2.53
2022-11-29T01:54:35.871Z,3.35
2022-11-29T01:57:08.264Z,3.00
2022-11-29T01:59:45.076Z,2.72
2022-11-29T02:02:16.851Z,3.08
2022-11-29T02:04:47.923Z,2.92
2022-11-29T02:07:19.676Z,3.55
2022-11-29T02:09:55.379Z,3.33
2022-11-29T02:12:30.993Z,3.65
2022-11-29T02:15:10.926Z,2.92
2022-11-29T02:17:52.237Z,3.42
2022-11-29T02:20:57.147Z,2.40
2022-11-29T02:23:48.385Z,2.58
2022-11-29T02:26:42.050Z,3.10
2022-11-29T02:29:39.847Z,2.88
2022-11-29T02:32:58.491Z,3.85
2022-11-29T02:35:43.303Z,3.05
2022-11-29T02:38:44.472Z,3.47
2022-11-29T02:41:29.908Z,3.33
2022-11-29T02:44:25.890Z,3.55
2022-11-29T02:47:08.885Z,3.17
2022-11-29T02:50:02.171Z,3.55
2022-11-29T02:52:47.869Z,2.53
2022-11-29T02:55:26.033Z,3.42
2022-11-29T02:58:01.148Z,3.85
2022-11-29T03:00:36.843Z,2.95
2022-11-29T03:03:13.610Z,3.78
2022-11-29T03:05:47.174Z,3.53
2022-11-29T03:08:23.350Z,2.92
2022-11-29T03:11:01.371Z,3.05
2022-11-29T03:13:43.002Z,3.45
2022-11-29T03:16:23.246Z,3.55
2022-11-29T03:19:05.340Z,3.67
2022-11-29T03:21:54.180Z,3.40
2022-11-29T03:24:31.601Z,3.70
2022-11-29T03:27:05.890Z,3.35
2022-11-29T03:29:38.984Z,3.17
2022-11-29T03:32:13.542Z,2.25
2022-11-29T03:34:57.611Z,2.85
2022-11-29T03:37:36.337Z,2.78
2022-11-29T03:40:11.896Z,2.67
2022-11-29T03:42:46.162Z,2.88
2022-11-29T03:45:23.882Z,4.15
2022-11-29T03:48:00.715Z,3.63
2022-11-29T03:50:35.747Z,3.42
2022-11-29T03:53:14.034Z,3.00
2022-11-29T03:55:54.893Z,4.13
2022-11-29T03:58:59.072Z,3.88
2022-11-29T04:01:50.779Z,3.65
2022-11-29T04:04:52.473Z,4.60
2022-11-29T04:07:42.705Z,2.80
2022-11-29T04:10:47.659Z,2.85
2022-11-29T04:13:47.670Z,3.00
2022-11-29T04:16:59.434Z,3.55
2022-11-29T04:20:01.257Z,2.53
2022-11-29T04:22:53.879Z,2.97
2022-11-29T04:25:59.138Z,3.97
2022-11-29T04:31:48.188Z,3.25
2022-11-29T04:34:54.556Z,3.67
2022-11-29T04:37:52.876Z,3.75
2022-11-29T04:40:41.730Z,3.50
2022-11-29T04:43:40.741Z,3.85
2022-11-29T04:46:38.021Z,4.57
2022-11-29T04:49:24.198Z,3.42
2022-11-29T04:52:26.977Z,3.92
2022-11-29T04:55:02.227Z,3.13
2022-11-29T04:57:46.679Z,2.90
2022-11-29T05:00:17.570Z,3.50
2022-11-29T05:02:56.147Z,3.50
2022-11-29T05:05:58.460Z,2.88
2022-11-29T05:08:38.554Z,3.03
2022-11-29T05:11:20.815Z,3.00
2022-11-29T05:14:13.907Z,3.42
2022-11-29T05:16:48.732Z,4.03
2022-11-29T05:19:44.652Z,3.58
2022-11-29T05:22:26.531Z,4.15
2022-11-29T05:25:06.919Z,3.15
2022-11-29T05:27:48.417Z,3.45
2022-11-29T05:30:19.878Z,3.22
2022-11-29T05:32:58.854Z,2.80
2022-11-29T05:35:48.837Z,4.32
2022-11-29T05:38:32.922Z,3.00
2022-11-29T05:41:13.407Z,3.88
2022-11-29T05:43:56.902Z,3.55
2022-11-29T05:46:32.337Z,3.35
2022-11-29T05:49:11.807Z,3.55
2022-11-29T05:51:45.967Z,3.15
2022-11-29T05:57:05.964Z,2.80
2022-11-29T05:59:52.337Z,3.60
2022-11-29T06:02:43.944Z,3.63
2022-11-29T06:05:29.863Z,3.28
2022-11-29T06:08:07.177Z,3.28
2022-11-29T06:10:40.814Z,2.80
2022-11-29T06:13:23.055Z,2.80
2022-11-29T06:16:32.484Z,4.70
2022-11-29T06:19:37.469Z,3.97
2022-11-29T06:22:26.164Z,3.85
2022-11-29T06:25:18.135Z,4.35
2022-11-29T06:28:16.645Z,2.85
2022-11-29T06:30:56.677Z,3.92
2022-11-29T06:33:28.510Z,3.50
2022-11-29T06:36:20.981Z,3.08
2022-11-29T06:38:58.665Z,3.50
2022-11-29T06:41:28.441Z,4.13
2022-11-29T06:44:12.024Z,5.57
2022-11-29T06:46:46.906Z,3.70
2022-11-29T06:49:23.959Z,3.72
2022-11-29T06:52:04.441Z,5.07
2022-11-29T06:54:51.803Z,4.45
2022-11-29T06:57:26.284Z,4.10
2022-11-29T07:00:10.941Z,4.05
2022-11-29T07:05:24.734Z,2.75
2022-11-29T07:07:55.211Z,3.90
2022-11-29T07:10:25.321Z,4.32
2022-11-29T07:12:53.894Z,4.75
2022-11-29T07:15:24.810Z,4.53
2022-11-29T07:18:18.741Z,3.92
2022-11-29T07:20:58.209Z,3.60
2022-11-29T07:23:34.384Z,3.58
2022-11-29T07:26:15.017Z,5.03
2022-11-29T07:28:57.665Z,3.20
2022-11-29T07:31:39.409Z,3.58
2022-11-29T07:34:19.729Z,3.83
2022-11-29T07:37:00.822Z,3.03
2022-11-29T07:39:42.940Z,2.92
2022-11-29T07:42:20.190Z,4.28
2022-11-29T07:44:59.547Z,3.05
2022-11-29T07:47:34.067Z,3.13
2022-11-29T07:50:03.709Z,3.55
2022-11-29T07:52:35.412Z,3.70
2022-11-29T07:55:03.668Z,3.65
2022-11-29T07:57:32.135Z,3.72
2022-11-29T08:00:07.794Z,3.17
2022-11-29T08:02:41.197Z,2.65
2022-11-29T08:05:10.029Z,2.58
2022-11-29T08:07:39.517Z,3.03
2022-11-29T08:10:19.363Z,3.15
2022-11-29T08:12:50.241Z,3.75
2022-11-29T08:15:18.754Z,4.90
2022-11-29T08:17:48.217Z,3.50
2022-11-29T08:20:17.798Z,4.55
2022-11-29T08:22:55.383Z,5.13
2022-11-29T08:25:24.075Z,4.13
2022-11-29T08:27:52.791Z,4.15
2022-11-29T08:30:22.290Z,4.93
2022-11-29T08:32:52.663Z,3.88
2022-11-29T08:35:22.304Z,3.95
2022-11-29T08:37:50.952Z,3.33
2022-11-29T08:40:19.454Z,3.65
2022-11-29T08:42:47.535Z,4.10
2022-11-29T08:45:16.422Z,4.32
2022-11-29T08:47:44.373Z,5.10
2022-11-29T08:50:17.880Z,4.65
2022-11-29T08:53:05.704Z,4.97
2022-11-29T08:55:36.080Z,5.50
2022-11-29T08:58:08.022Z,3.63
2022-11-29T09:00:41.088Z,3.78
2022-11-29T09:03:26.904Z,4.30
2022-11-29T09:05:57.560Z,4.00
2022-11-29T09:08:29.015Z,6.05
2022-11-29T09:11:10.991Z,4.28
2022-11-29T09:13:40.766Z,4.28
2022-11-29T09:16:11.260Z,4.68
2022-11-29T09:18:40.593Z,3.50
2022-11-29T09:21:12.418Z,4.15
2022-11-29T09:23:42.223Z,3.67
2022-11-29T09:26:11.772Z,5.10
2022-11-29T09:28:42.537Z,3.88
2022-11-29T09:31:12.951Z,4.68
2022-11-29T09:33:41.394Z,4.18
2022-11-29T09:36:12.066Z,3.60
2022-11-29T09:38:40.794Z,4.22
2022-11-29T09:41:25.111Z,5.22
2022-11-29T09:44:06.621Z,5.35
2022-11-29T09:46:45.119Z,5.90
2022-11-29T09:49:55.387Z,4.75
2022-11-29T09:52:53.577Z,4.78
2022-11-29T09:55:38.466Z,4.60
2022-11-29T09:58:10.695Z,4.78
2022-11-29T10:00:47.242Z,6.35
2022-11-29T10:03:23.235Z,4.65
2022-11-29T10:05:57.430Z,4.57
2022-11-29T10:08:33.127Z,3.00
2022-11-29T10:11:16.968Z,3.80
2022-11-29T10:13:48.960Z,4.80
2022-11-29T10:16:24.588Z,4.03
2022-11-29T10:19:01.059Z,5.15
2022-11-29T10:21:35.213Z,4.00
2022-11-29T10:24:10.814Z,4.30
2022-11-29T10:26:38.993Z,4.85
2022-11-29T10:29:06.821Z,4.90
2022-11-29T10:31:40.106Z,5.80
2022-11-29T10:34:14.460Z,6.10
2022-11-29T10:39:17.247Z,3.92
2022-11-29T10:41:45.176Z,5.35
2022-11-29T10:44:15.556Z,6.18
2022-11-29T10:46:43.447Z,5.28
2022-11-29T10:49:16.305Z,4.95
2022-11-29T10:51:44.272Z,5.45
2022-11-29T10:54:28.516Z,3.85
2022-11-29T10:56:58.358Z,7.32
2022-11-29T10:59:28.282Z,5.60
2022-11-29T11:01:57.039Z,5.25
2022-11-29T11:04:30.464Z,4.97
2022-11-29T11:07:01.361Z,3.83
2022-11-29T11:09:37.118Z,5.10
2022-11-29T11:12:08.489Z,3.75
2022-11-29T11:14:38.647Z,4.25
2022-11-29T11:17:21.696Z,5.70
2022-11-29T11:19:57.702Z,5.18
2022-11-29T11:22:27.116Z,4.50
2022-11-29T11:25:02.137Z,4.35
2022-11-29T11:27:32.217Z,6.03
2022-11-29T11:30:01.149Z,6.15
2022-11-29T11:32:29.456Z,5.05
2022-11-29T11:34:59.009Z,6.45
2022-11-29T11:37:28.630Z,5.22
2022-11-29T11:39:59.784Z,6.38
2022-11-29T11:42:39.709Z,6.82
2022-11-29T11:45:38.795Z,6.68
2022-11-29T11:48:14.447Z,5.05
2022-11-29T11:50:45.437Z,5.93
2022-11-29T11:53:22.260Z,6.20
2022-11-29T11:56:00.016Z,8.55
2022-11-29T11:58:30.884Z,5.80
2022-11-29T12:01:04.825Z,6.65
2022-11-29T12:03:46.615Z,7.38
2022-11-29T12:06:32.940Z,6.82
2022-11-29T12:09:06.155Z,7.00
2022-11-29T12:11:43.664Z,8.82
2022-11-29T12:14:21.389Z,6.97
2022-11-29T12:16:51.367Z,6.65
2022-11-29T12:19:24.104Z,7.75
2022-11-29T12:21:57.428Z,7.80
2022-11-29T12:24:30.126Z,5.73
2022-11-29T12:27:04.125Z,5.75
2022-11-29T12:29:34.799Z,6.93
2022-11-29T12:32:15.656Z,6.75
2022-11-29T12:35:00.302Z,6.25
2022-11-29T12:40:07.605Z,4.90
2022-11-29T12:42:52.935Z,6.45
2022-11-29T12:45:34.329Z,6.80
2022-11-29T12:48:10.658Z,5.30
2022-11-29T12:50:46.592Z,6.40
2022-11-29T12:53:28.206Z,6.25
2022-11-29T12:56:07.145Z,6.90
2022-11-29T12:58:50.408Z,6.60
2022-11-29T13:01:26.919Z,7.53
2022-11-29T13:04:01.362Z,6.45
2022-11-29T13:06:38.179Z,6.75
2022-11-29T13:09:28.161Z,6.28
2022-11-29T13:11:59.705Z,8.55
2022-11-29T13:14:44.060Z,5.70
2022-11-29T13:19:50.644Z,6.47
2022-11-29T13:22:27.003Z,4.70
2022-11-29T13:24:58.817Z,5.63
2022-11-29T13:27:31.112Z,6.30
2022-11-29T13:30:02.010Z,5.60
2022-11-29T13:32:35.150Z,5.82
2022-11-29T13:35:09.090Z,7.60
2022-11-29T13:37:49.377Z,6.70
2022-11-29T13:40:30.967Z,8.32
2022-11-29T13:43:04.989Z,7.60
2022-11-29T13:45:41.516Z,7.55
2022-11-29T13:48:31.230Z,5.78
2022-11-29T13:50:59.507Z,6.50
2022-11-29T13:53:47.040Z,8.88
2022-11-29T13:56:29.583Z,7.55
2022-11-29T13:58:58.955Z,8.05
2022-11-29T14:01:29.481Z,7.03
2022-11-29T14:04:15.720Z,9.70
2022-11-29T14:06:43.612Z,8.85
2022-11-29T14:09:24.721Z,8.73
2022-11-29T14:12:01.156Z,7.32
2022-11-29T14:14:33.072Z,8.52
2022-11-29T14:17:03.820Z,8.93
2022-11-29T14:19:34.187Z,7.80
2022-11-29T14:22:22.764Z,9.23
2022-11-29T14:25:43.237Z,7.53
2022-11-29T14:28:29.597Z,7.85
2022-11-29T14:30:58.436Z,7.05
2022-11-29T14:33:53.045Z,8.05
2022-11-29T14:36:33.212Z,6.25
2022-11-29T14:39:14.910Z,6.38
2022-11-29T14:41:56.232Z,7.30
2022-11-29T14:44:28.399Z,7.03
2022-11-29T14:47:02.645Z,6.65
2022-11-29T14:52:10.319Z,6.95
2022-11-29T14:54:55.196Z,6.05
2022-11-29T14:57:52.801Z,7.82
2022-11-29T15:00:22.278Z,7.63
2022-11-29T15:02:53.399Z,8.40
2022-11-29T15:05:25.596Z,9.90
2022-11-29T15:08:04.740Z,7.20
2022-11-29T15:10:38.159Z,6.22
2022-11-29T15:13:07.428Z,5.23
2022-11-29T15:15:45.563Z,6.88
2022-11-29T15:18:29.740Z,7.82
2022-11-29T15:21:10.375Z,6.85
2022-11-29T15:23:42.651Z,7.10
2022-11-29T15:26:18.825Z,8.07
2022-11-29T15:28:46.781Z,6.93
2022-11-29T15:31:19.070Z,6.82
2022-11-29T15:33:49.595Z,6.70
2022-11-29T15:36:21.316Z,6.72
2022-11-29T15:38:50.640Z,7.05
2022-11-29T15:41:27.141Z,7.15
2022-11-29T15:43:57.346Z,6.28
2022-11-29T15:46:26.893Z,7.72
2022-11-29T15:48:55.013Z,8.20
2022-11-29T15:51:30.325Z,6.07
2022-11-29T15:54:12.231Z,7.43
2022-11-29T15:56:46.282Z,8.70
2022-11-29T15:59:20.162Z,6.75
2022-11-29T16:01:52.400Z,6.72
2022-11-29T16:04:22.559Z,8.65
2022-11-29T16:06:52.781Z,7.05
2022-11-29T16:09:24.053Z,8.73
2022-11-29T16:11:52.098Z,7.68
2022-11-29T16:14:24.600Z,8.30
2022-11-29T16:16:55.200Z,7.38
2022-11-29T16:19:27.489Z,9.65
2022-11-29T16:22:09.941Z,8.82
2022-11-29T16:24:38.802Z,9.38
2022-11-29T16:27:08.364Z,8.50
2022-11-29T16:29:38.644Z,9.40
2022-11-29T16:32:15.805Z,8.57
2022-11-29T16:34:45.025Z,8.15
2022-11-29T16:37:19.535Z,8.20
2022-11-29T16:42:24.935Z,7.50
2022-11-29T16:45:03.030Z,10.70
2022-11-29T16:47:33.144Z,6.95
2022-11-29T16:50:24.983Z,6.63
2022-11-29T16:52:56.769Z,5.97
2022-11-29T16:55:25.415Z,7.97
2022-11-29T16:57:53.380Z,8.23
2022-11-29T17:00:30.792Z,7.32
2022-11-29T17:02:58.694Z,6.93
2022-11-29T17:05:26.728Z,8.48
2022-11-29T17:07:56.250Z,6.70
2022-11-29T17:10:25.959Z,8.73
2022-11-29T17:12:53.697Z,9.02
2022-11-29T17:15:21.546Z,11.95
2022-11-29T17:17:50.018Z,9.23
2022-11-29T17:20:18.140Z,8.05
2022-11-29T17:22:45.953Z,11.27
2022-11-29T17:25:15.081Z,8.35
2022-11-29T17:27:42.901Z,8.25
2022-11-29T17:30:12.287Z,9.23
2022-11-29T17:32:40.135Z,8.38
2022-11-29T17:35:08.404Z,8.70
2022-11-29T17:37:36.332Z,8.95
2022-11-29T17:40:04.532Z,9.20
2022-11-29T17:42:33.640Z,11.35
2022-11-29T17:45:01.513Z,8.43
2022-11-29T17:47:29.400Z,8.75
2022-11-29T17:49:58.080Z,10.63
2022-11-29T17:52:26.080Z,9.60
2022-11-29T17:54:54.032Z,10.25
2022-11-29T17:57:21.896Z,11.02
2022-11-29T17:59:51.134Z,11.23
2022-11-29T18:02:18.988Z,13.32
2022-11-29T18:04:46.912Z,11.38
2022-11-29T18:07:17.029Z,11.55
2022-11-29T18:09:46.450Z,9.35
2022-11-29T18:12:14.509Z,11.85
2022-11-29T18:14:42.420Z,12.30
2022-11-29T18:17:11.650Z,8.90
2022-11-29T18:19:39.558Z,12.82
2022-11-29T18:22:07.436Z,11.48
2022-11-29T18:24:35.294Z,11.23
2022-11-29T18:27:03.103Z,11.00
2022-11-29T18:29:46.266Z,10.80
2022-11-29T18:32:16.004Z,9.00
2022-11-29T18:34:44.085Z,11.20
2022-11-29T18:37:17.943Z,9.57
2022-11-29T18:39:52.670Z,8.73
2022-11-29T18:42:20.513Z,8.15
2022-11-29T18:44:48.500Z,10.32
2022-11-29T18:47:17.814Z,11.90
2022-11-29T18:49:45.748Z,10.95
2022-11-29T18:52:13.560Z,11.10
2022-11-29T18:54:41.343Z,12.93
2022-11-29T18:57:09.261Z,11.40
2022-11-29T18:59:37.199Z,10.77
2022-11-29T19:02:04.963Z,10.88
2022-11-29T19:04:34.142Z,10.60
2022-11-29T19:07:02.026Z,11.00
2022-11-29T19:09:29.939Z,13.40
2022-11-29T19:11:57.959Z,12.27
2022-11-29T19:14:26.021Z,12.18
2022-11-29T19:16:54.290Z,9.85
2022-11-29T19:19:22.321Z,11.20
2022-11-29T19:21:51.497Z,10.45
2022-11-29T19:24:20.011Z,11.63
2022-11-29T19:26:49.686Z,9.82
2022-11-29T19:29:18.412Z,10.27
2022-11-29T19:31:46.225Z,8.32
2022-11-29T19:34:14.703Z,11.10
2022-11-29T19:36:44.402Z,9.48
2022-11-29T19:39:15.113Z,9.32
2022-11-29T19:41:44.866Z,9.98
2022-11-29T19:44:13.151Z,10.65
2022-11-29T19:46:43.319Z,10.52
2022-11-29T19:49:11.741Z,12.70
2022-11-29T19:51:40.261Z,11.55
2022-11-29T19:54:10.579Z,7.88
2022-11-29T19:56:40.890Z,10.85
2022-11-29T19:59:09.743Z,12.32
2022-11-29T20:01:42.742Z,11.30
2022-11-29T20:04:12.627Z,11.15
2022-11-29T20:06:41.163Z,11.02
2022-11-29T20:09:09.167Z,9.25
2022-11-29T20:11:37.489Z,11.93
2022-11-29T20:14:08.280Z,9.52
2022-11-29T20:16:37.868Z,9.00
2022-11-29T20:19:10.061Z,8.48
2022-11-29T20:21:42.170Z,8.50
2022-11-29T20:24:10.293Z,8.25
2022-11-29T20:26:39.800Z,8.45
2022-11-29T20:29:10.287Z,8.25
2022-11-29T20:31:43.062Z,6.57
2022-11-29T20:34:15.055Z,10.23
2022-11-29T20:36:58.133Z,10.35
2022-11-29T20:39:37.287Z,8.98
2022-11-29T20:42:39.185Z,10.25
2022-11-29T20:45:10.652Z,8.13
2022-11-29T20:47:46.454Z,9.18
2022-11-29T20:50:17.609Z,9.27
2022-11-29T20:52:52.994Z,7.15
2022-11-29T20:55:21.202Z,8.02
2022-11-29T20:57:49.822Z,8.75
2022-11-29T21:00:19.618Z,13.23
2022-11-29T21:02:47.374Z,12.40
2022-11-29T21:05:16.568Z,9.55
2022-11-29T21:07:45.722Z,9.73
2022-11-29T21:10:14.742Z,9.98
2022-11-29T21:12:43.213Z,9.80
2022-11-29T21:15:13.127Z,9.30
2022-11-29T21:17:44.135Z,8.15
2022-11-29T21:20:18.804Z,8.30
2022-11-29T21:22:54.471Z,10.45
2022-11-29T21:25:31.076Z,12.90
2022-11-29T21:28:01.430Z,8.95
2022-11-29T21:30:29.580Z,11.98
2022-11-29T21:32:59.812Z,9.90
2022-11-29T21:35:27.593Z,9.63
2022-11-29T21:37:59.614Z,10.23
2022-11-29T21:40:27.592Z,8.50
2022-11-29T21:42:55.412Z,9.05
2022-11-29T21:45:23.274Z,11.48
2022-11-29T21:47:51.064Z,8.02
2022-11-29T21:50:20.406Z,9.10
2022-11-29T21:52:48.218Z,9.88
2022-11-29T21:55:16.167Z,9.80
2022-11-29T21:57:44.320Z,8.00
2022-11-29T22:00:13.202Z,8.63
2022-11-29T22:02:42.129Z,8.85
2022-11-29T22:05:10.676Z,8.48
2022-11-29T22:07:39.849Z,9.27
2022-11-29T22:10:13.254Z,9.35
2022-11-29T22:12:51.339Z,10.63
2022-11-29T22:15:24.426Z,7.78
2022-11-29T22:17:54.149Z,9.75
2022-11-29T22:20:23.542Z,7.50
2022-11-29T22:22:57.166Z,8.05
2022-11-29T22:25:26.642Z,8.88
2022-11-29T22:27:54.459Z,9.18
2022-11-29T22:30:22.622Z,9.23
2022-11-29T22:32:50.409Z,7.18
2022-11-29T22:35:18.315Z,10.43
2022-11-29T22:37:46.160Z,11.68
2022-11-29T22:40:15.761Z,7.97
2022-11-29T22:42:43.765Z,10.13
2022-11-29T22:45:12.370Z,9.20
2022-11-29T22:47:40.457Z,9.38
2022-11-29T22:50:09.279Z,7.35
2022-11-29T22:52:37.295Z,7.55
2022-11-29T22:55:05.583Z,8.02
2022-11-29T22:57:34.773Z,10.05
2022-11-29T23:00:02.701Z,9.00
2022-11-29T23:02:30.886Z,7.55
2022-11-29T23:04:58.747Z,7.78
2022-11-29T23:07:26.606Z,8.13
2022-11-29T23:09:55.957Z,6.43
2022-11-29T23:12:23.847Z,7.15
2022-11-29T23:14:56.626Z,7.00
2022-11-29T23:17:24.980Z,7.72
2022-11-29T23:19:53.120Z,9.02
2022-11-29T23:22:20.963Z,7.55
2022-11-29T23:24:48.881Z,7.53
2022-11-29T23:27:16.859Z,6.40
2022-11-29T23:29:44.686Z,5.97
2022-11-29T23:32:13.916Z,6.20
2022-11-29T23:34:42.289Z,7.25
2022-11-29T23:37:10.395Z,6.13
2022-11-29T23:39:38.233Z,7.65
2022-11-29T23:42:06.630Z,8.38
2022-11-29T23:44:34.579Z,7.18
2022-11-29T23:47:02.558Z,8.10
2022-11-29T23:49:31.957Z,6.90
2022-11-29T23:52:00.068Z,5.88
2022-11-29T23:54:27.969Z,7.00
2022-11-29T23:56:55.874Z,8.02
2022-11-29T23:59:23.657Z,6.78
